• Join FlightAware (Why Join?)
  • Login
  • US Flag 
01:51PM EDT


 

Airport Tracker/Info


-or-


 

Live Flight TrackerFlight Track Log ✈ AWE1194 ✈ 08-May-2012 ✈ KPHX - KPHL

Flight Track Log - Related Links

Times and Time Zones

All times are in EDT time to prevent confusion due to time zone crossing. See the AWE1194 flight status page for this flight to view local times or setup timezone preferences in your user account.

Time Position Orientation Groundspeed Altitude Reporting Facility
EDT Latitude Longitude Course Direction KTS MPH feet Rate Location/Type
02:09PM 33.4333 -111.9833 83° East 199 229 1,800  Level Phoenix TRACON
02:13PM 33.4667 -111.6500 81° East 308 354 11,500 2,220 Climbing Phoenix TRACON
02:13PM 33.4756 -111.5828 81° East 344 396 12,100 1,980 Climbing Albuquerque Center
02:14PM 33.4897 -111.4789 81° East 401 461 14,700 2,340 Climbing Albuquerque Center
02:15PM 33.5036 -111.3775 80° East 406 467 16,800 2,280 Climbing Albuquerque Center
02:16PM 33.5278 -111.2094 84° East 406 467 19,300 2,700 Climbing Albuquerque Center
02:17PM 33.5381 -111.0878 83° East 406 467 22,200 2,400 Climbing Albuquerque Center
02:18PM 33.5528 -110.9464 74° East 411 473 24,100 1,680 Climbing Albuquerque Center
02:19PM 33.5861 -110.8058 68° East 421 484 25,600 1,560 Climbing Albuquerque Center
02:20PM 33.6361 -110.6533 68° East 432 497 27,300 1,620 Climbing Albuquerque Center
02:21PM 33.6839 -110.5078 69° East 452 520 28,900 1,500 Climbing Albuquerque Center
02:22PM 33.7269 -110.3747 69° East 469 540 30,400 1,560 Climbing Albuquerque Center
02:23PM 33.7744 -110.2289 73° East 469 540 32,100 1,620 Climbing Albuquerque Center
02:24PM 33.8133 -110.0778 77° East 469 540 33,700 1,500 Climbing Albuquerque Center
02:25PM 33.8439 -109.9239 77° East 464 534 35,100 1,260 Climbing Albuquerque Center
02:26PM 33.8722 -109.7697 78° East 464 534 36,300 900 Climbing Albuquerque Center
02:27PM 33.9003 -109.6128 78° East 469 540 37,000 300 Climbing Albuquerque Center
02:28PM 33.9281 -109.4533 78° East 469 540 37,000  Level Albuquerque Center
02:29PM 33.9558 -109.2989 77° East 474 545 37,000  Level Albuquerque Center
02:30PM 33.9853 -109.1394 78° East 474 545 37,000  Level Albuquerque Center
02:31PM 34.0194 -108.9472 77° East 484 557 37,000  Level Albuquerque Center
02:32PM 34.0531 -108.7647 79° East 489 563 37,000  Level Albuquerque Center
02:33PM 34.0797 -108.6022 68° East 495 570 37,000  Level Albuquerque Center
02:34PM 34.1314 -108.4475 65° Northeast 488 562 37,000  Level Albuquerque Center
02:35PM 34.1911 -108.2950 64° Northeast 488 562 37,000  Level Albuquerque Center
02:36PM 34.2400 -108.1750 68° East 493 567 37,000  Level Albuquerque Center
02:37PM 34.2931 -108.0122 68° East 487 560 37,000  Level Albuquerque Center
02:38PM 34.3503 -107.8367 71° East 492 566 37,000  Level Albuquerque Center
02:39PM 34.3947 -107.6808 72° East 498 573 37,000  Level Albuquerque Center
02:40PM 34.4367 -107.5222 70° East 493 567 37,000  Level Albuquerque Center
02:41PM 34.4786 -107.3789 70° East 486 559 37,000  Level Albuquerque Center
02:42PM 34.5286 -107.2075 70° East 486 559 37,000  Level Albuquerque Center
02:43PM 34.5742 -107.0533 71° East 486 559 37,000  Level Albuquerque Center
02:44PM 34.6175 -106.8967 70° East 486 559 37,000  Level Albuquerque Center
02:45PM 34.6647 -106.7425 70° East 486 559 37,000  Level Albuquerque Center
02:46PM 34.7119 -106.5856 70° East 486 559 37,000  Level Albuquerque Center
02:47PM 34.7586 -106.4308 70° East 486 559 37,000  Level Albuquerque Center
02:48PM 34.8056 -106.2761 71° East 486 559 37,000  Level Albuquerque Center
02:49PM 34.8497 -106.1183 70° East 486 559 37,000  Level Albuquerque Center
02:50PM 34.8922 -105.9761 72° East 486 559 37,000  Level Albuquerque Center
02:51PM 34.9339 -105.8183 70° East 486 559 37,000  Level Albuquerque Center
02:52PM 34.9819 -105.6603 71° East 486 559 37,000  Level Albuquerque Center
02:53PM 35.0256 -105.5019 70° East 486 559 37,000  Level Albuquerque Center
02:54PM 35.0711 -105.3486 72° East 482 555 37,000  Level Albuquerque Center
02:55PM 35.1103 -105.2031 73° East 482 555 37,000  Level Albuquerque Center
02:56PM 35.1589 -105.0111 75° East 487 560 37,000  Level Albuquerque Center
02:57PM 35.1931 -104.8525 66° East 482 555 37,000  Level Albuquerque Center
02:58PM 35.2503 -104.6981 66° East 482 555 37,000  Level Albuquerque Center
02:59PM 35.2994 -104.5617 62° Northeast 492 566 37,000  Level Albuquerque Center
03:00PM 35.3725 -104.3936 64° Northeast 492 566 37,000  Level Albuquerque Center
03:01PM 35.4353 -104.2383 64° Northeast 499 574 37,000  Level Albuquerque Center
03:02PM 35.4900 -104.1008 65° Northeast 499 574 37,000  Level Albuquerque Center
03:03PM 35.5483 -103.9481 64° Northeast 492 566 37,000  Level Albuquerque Center
03:04PM 35.6086 -103.7947 64° Northeast 492 566 37,000  Level Albuquerque Center
03:05PM 35.6631 -103.6567 65° Northeast 492 566 37,000  Level Albuquerque Center
03:06PM 35.7342 -103.4692 64° Northeast 497 572 37,000  Level Albuquerque Center
03:07PM 35.7958 -103.3125 65° Northeast 497 572 37,000  Level Albuquerque Center
03:08PM 35.8550 -103.1558 64° Northeast 497 572 37,000  Level Albuquerque Center
03:09PM 35.9164 -103.0011 65° Northeast 497 572 37,000  Level Albuquerque Center
03:11PM 35.9694 -102.8597 66° East 497 572 37,000  Level Albuquerque Center
03:12PM 36.0394 -102.6681 65° Northeast 497 572 37,000  Level Albuquerque Center
03:13PM 36.0997 -102.5078 65° Northeast 497 572 37,000  Level Albuquerque Center
03:14PM 36.2069 -102.2214 65° Northeast 505 581 37,000  Level Kansas City Center
03:15PM 36.2700 -102.0500 66° East 505 581 37,000  Level Kansas City Center
03:16PM 36.3306 -101.8831 64° Northeast 512 589 37,000  Level Kansas City Center
03:17PM 36.3928 -101.7236 68° East 512 589 37,000  Level Kansas City Center
03:18PM 36.4539 -101.5383 65° Northeast 512 589 37,000  Level Kansas City Center
03:19PM 36.5156 -101.3733 65° Northeast 512 589 37,000  Level Kansas City Center
03:20PM 36.5700 -101.2256 66° East 525 604 37,000  Level Kansas City Center
03:21PM 36.6369 -101.0369 66° East 530 610 37,000  Level Kansas City Center
03:22PM 36.6958 -100.8736 67° East 530 610 37,000  Level Kansas City Center
03:23PM 36.7550 -100.7022 66° East 530 610 37,000  Level Kansas City Center
03:24PM 36.8086 -100.5508 67° East 521 600 37,000  Level Kansas City Center
03:25PM 36.8722 -100.3664 71° East 528 608 37,000  Level Kansas City Center
03:26PM 36.9203 -100.1933 72° East 523 602 37,000  Level Kansas City Center
03:27PM 36.9608 -100.0403 71° East 518 596 37,000  Level Kansas City Center
03:28PM 37.0086 -99.8617 72° East 518 596 37,000  Level Kansas City Center
03:29PM 37.0589 -99.6672 72° East 530 610 37,000  Level Kansas City Center
03:30PM 37.1042 -99.4881 72° East 535 616 37,000  Level Kansas City Center
03:31PM 37.1439 -99.3342 73° East 528 608 37,000  Level Kansas City Center
03:32PM 37.1886 -99.1519 72° East 533 613 37,000  Level Kansas City Center
03:33PM 37.2328 -98.9800 72° East 527 606 37,000  Level Kansas City Center
03:34PM 37.2789 -98.8000 73° East 532 612 37,000  Level Kansas City Center
03:35PM 37.3228 -98.6194 73° East 532 612 37,000  Level Kansas City Center
03:36PM 37.3667 -98.4389 73° East 532 612 37,000  Level Kansas City Center
03:37PM 37.4100 -98.2581 73° East 532 612 37,000  Level Kansas City Center
03:38PM 37.4531 -98.0744 73° East 532 612 37,000  Level Kansas City Center
03:39PM 37.4958 -97.8933 73° East 532 612 37,000  Level Kansas City Center
03:40PM 37.5456 -97.6858 74° East 539 620 37,000  Level Kansas City Center
03:41PM 37.5831 -97.5197 73° East 544 626 37,000  Level Kansas City Center
03:42PM 37.6272 -97.3328 74° East 550 633 37,000  Level Kansas City Center
03:43PM 37.6692 -97.1481 74° East 550 633 37,000  Level Kansas City Center
03:44PM 37.7128 -96.9606 75° East 550 633 37,000  Level Kansas City Center
03:45PM 37.7519 -96.7781 73° East 544 626 37,000  Level Kansas City Center
03:46PM 37.7947 -96.5953 73° East 544 626 37,000  Level Kansas City Center
03:47PM 37.8397 -96.4097 76° East 544 626 37,000  Level Kansas City Center
03:48PM 37.8778 -96.2214 74° East 544 626 37,000  Level Kansas City Center
03:49PM 37.9244 -96.0172 74° East 551 634 37,000  Level Kansas City Center
03:50PM 37.9664 -95.8283 75° East 551 634 37,000  Level Kansas City Center
03:51PM 38.0058 -95.6367 74° East 551 634 37,000  Level Kansas City Center
03:52PM 38.0492 -95.4447 76° East 558 642 37,000  Level Kansas City Center
03:53PM 38.0839 -95.2711 75° East 558 642 37,000  Level Kansas City Center
03:54PM 38.1244 -95.0842 75° East 547 629 37,000  Level Kansas City Center
03:55PM 38.1692 -94.8731 76° East 547 629 37,000  Level Kansas City Center
03:56PM 38.2050 -94.6858 75° East 561 646 37,000 900 Level Kansas City Center
03:57PM 38.2406 -94.5192 75° East 545 627 38,800 960 Climbing Kansas City Center
03:58PM 38.2822 -94.3236 75° East 515 593 39,000 60 Climbing Kansas City Center
03:59PM 38.3172 -94.1514 75° East 500 575 39,000  Level Kansas City Center
04:00PM 38.3500 -93.9978 75° East 500 575 39,000  Level Kansas City Center
04:01PM 38.3886 -93.8172 76° East 506 582 39,000  Level Kansas City Center
04:02PM 38.4250 -93.6367 76° East 513 590 39,000  Level Kansas City Center
04:03PM 38.4592 -93.4561 76° East 519 597 39,000  Level Kansas City Center
04:04PM 38.4947 -93.2725 76° East 519 597 39,000  Level Kansas City Center
04:05PM 38.5303 -93.0939 76° East 519 597 39,000  Level Kansas City Center
04:06PM 38.5675 -92.8967 76° East 519 597 39,000  Level Kansas City Center
04:07PM 38.6025 -92.7153 76° East 519 597 39,000  Level Kansas City Center
04:08PM 38.6372 -92.5364 77° East 519 597 39,000  Level Kansas City Center
04:09PM 38.6694 -92.3522 76° East 519 597 39,000  Level Kansas City Center
04:10PM 38.7036 -92.1728 77° East 514 592 39,000  Level Kansas City Center
04:11PM 38.7353 -91.9908 77° East 514 592 39,000  Level Kansas City Center
04:12PM 38.7669 -91.8086 77° East 514 592 39,000  Level Kansas City Center
04:13PM 38.7981 -91.6292 77° East 514 592 39,000  Level Kansas City Center
04:14PM 38.8311 -91.4439 78° East 514 592 39,000  Level Kansas City Center
04:15PM 38.8617 -91.2639 77° East 519 597 39,000  Level Kansas City Center
04:16PM 38.8942 -91.0783 78° East 519 597 39,000  Level Kansas City Center
04:17PM 38.9206 -90.9144 77° East 526 605 39,000  Level Kansas City Center
04:18PM 38.9544 -90.7311 79° East 528 608 39,000  Level Kansas City Center
04:19PM 38.9839 -90.5428 78° East 528 608 39,000  Level Kansas City Center
04:20PM 39.0183 -90.3350 78° East 528 608 39,000  Level Kansas City Center
04:21PM 39.0458 -90.1703 78° East 528 608 39,000  Level Kansas City Center
04:22PM 39.0800 -89.9650 78° East 528 608 39,000  Level Kansas City Center
04:23PM 39.1103 -89.7758 79° East 528 608 39,000  Level Kansas City Center
04:24PM 39.1367 -89.6056 79° East 533 613 39,000  Level Kansas City Center
04:25PM 39.1678 -89.4000 79° East 533 613 39,000  Level Kansas City Center
04:26PM 39.1936 -89.2267 79° East 528 608 39,000  Level Kansas City Center
04:27PM 39.2225 -89.0369 78° East 535 616 39,000  Level Kansas City Center
04:29PM 39.2728 -88.7236 79° East 526 605 39,000  Level Indianapolis Center
04:30PM 39.3019 -88.5350 79° East 526 605 39,000  Level Indianapolis Center
04:31PM 39.3361 -88.3119 79° East 526 605 39,000  Level Indianapolis Center
04:32PM 39.3672 -88.1044 82° East 526 605 39,000  Level Indianapolis Center
04:33PM 39.3889 -87.9150 79° East 531 611 39,000  Level Indianapolis Center
04:34PM 39.4169 -87.7206 80° East 540 621 39,000  Level Indianapolis Center
04:35PM 39.4422 -87.5283 80° East 540 621 39,000  Level Indianapolis Center
04:36PM 39.4694 -87.3361 80° East 545 627 39,000  Level Indianapolis Center
04:37PM 39.4961 -87.1439 80° East 545 627 39,000  Level Indianapolis Center
04:38PM 39.5228 -86.9486 80° East 540 621 39,000  Level Indianapolis Center
04:39PM 39.5469 -86.7614 80° East 540 621 39,000  Level Indianapolis Center
04:40PM 39.5728 -86.5658 82° East 540 621 39,000  Level Indianapolis Center
04:41PM 39.5942 -86.3756 80° East 540 621 39,000  Level Indianapolis Center
04:42PM 39.6194 -86.1797 79° East 548 631 39,000  Level Indianapolis Center
04:43PM 39.6464 -85.9947 80° East 539 620 39,000  Level Indianapolis Center
04:44PM 39.6711 -85.8094 81° East 529 609 39,000  Level Indianapolis Center
04:45PM 39.6931 -85.6239 81° East 524 603 39,000  Level Indianapolis Center
04:46PM 39.7150 -85.4356 80° East 518 596 39,000 -540 Level Indianapolis Center
04:47PM 39.7386 -85.2553 81° East 517 595 38,000 -1,140 Descending Indianapolis Center
04:48PM 39.7600 -85.0694 81° East 512 589 36,800 -1,260 Descending Indianapolis Center
04:49PM 39.7808 -84.8917 82° East 512 589 35,500 -1,080 Descending Indianapolis Center
04:50PM 39.7992 -84.7217 81° East 512 589 34,700 -1,020 Descending Indianapolis Center
04:51PM 39.8217 -84.5383 82° East 512 589 33,500 -900 Descending Indianapolis Center
04:52PM 39.8419 -84.3547 82° East 517 595 32,900 -300 Descending Indianapolis Center
04:53PM 39.8617 -84.1683 82° East 524 603 33,000  Climbing Indianapolis Center
04:54PM 39.8814 -83.9817 81° East 517 595 33,000  Level Indianapolis Center
04:55PM 39.9028 -83.8006 82° East 517 595 33,000  Level Indianapolis Center
04:56PM 39.9258 -83.5950 84° East 522 601 33,000  Level Indianapolis Center
04:57PM 39.9425 -83.4000 81° East 528 608 33,000  Level Indianapolis Center
04:58PM 39.9650 -83.2075 83° East 538 619 33,000  Level Indianapolis Center
04:59PM 39.9811 -83.0342 83° East 538 619 33,000  Level Indianapolis Center
05:00PM 39.9989 -82.8442 82° East 533 613 33,000  Level Indianapolis Center
05:01PM 40.0183 -82.6597 83° East 533 613 33,000  Level Indianapolis Center
05:02PM 40.0356 -82.4669 83° East 533 613 33,000  Level Indianapolis Center
05:04PM 40.0647 -82.1483 83° East 529 609 33,000  Level Cleveland Center
05:05PM 40.0817 -81.9561 83° East 529 609 33,000  Level Cleveland Center
05:06PM 40.0986 -81.7636 84° East 534 615 33,000  Level Cleveland Center
05:07PM 40.1150 -81.5714 84° East 539 620 33,000  Level Cleveland Center
05:08PM 40.1311 -81.3814 83° East 539 620 33,000  Level Cleveland Center
05:09PM 40.1489 -81.1889 79° East 539 620 33,000  Level Cleveland Center
05:10PM 40.1769 -80.9933 74° East 539 620 33,000  Level Cleveland Center
05:11PM 40.2169 -80.8061 73° East 539 620 33,000  Level Cleveland Center
05:12PM 40.2611 -80.6186 77° East 539 620 33,000  Level Cleveland Center
05:14PM 40.3294 -80.2400 90° East 528 608 33,000  Level Cleveland Center
05:15PM 40.3306 -80.0439 91° East 528 608 33,000  Level Cleveland Center
05:16PM 40.3275 -79.8694 90° East 528 608 33,000  Level Cleveland Center
05:17PM 40.3264 -79.6817 91° East 528 608 33,000 -60 Level Cleveland Center
05:18PM 40.3244 -79.4883 91° East 528 608 32,900 -780 Descending Cleveland Center
05:19PM 40.3203 -79.2786 91° East 528 608 31,500 -960 Descending Cleveland Center
05:20PM 40.3181 -79.0881 91° East 528 608 31,000 -300 Descending Cleveland Center
05:21PM 40.3153 -78.8922 90° East 528 608 31,000  Level Cleveland Center
05:22PM 40.3142 -78.6989 90° East 535 616 31,000  Level Cleveland Center
05:23PM 40.3150 -78.5083 90° East 535 616 31,000 -1,440 Level Cleveland Center
05:25PM 40.3142 -78.1867 90° East 522 601 27,100 -1,680 Descending New York Center
05:26PM 40.3150 -78.0042 92° East 514 592 26,500 -1,080 Descending New York Center
05:27PM 40.3117 -77.8542 97° East 514 592 25,000 -1,260 Descending New York Center
05:28PM 40.2942 -77.6561 100° East 473 544 24,100 -1,320 Descending New York Center
05:29PM 40.2725 -77.4881 99° East 479 551 22,500 -1,380 Descending New York Center
05:30PM 40.2569 -77.3586 100° East 467 537 21,400 -1,200 Descending New York Center
05:31PM 40.2331 -77.1850 98° East 447 514 20,100 -1,380 Descending New York Center
05:32PM 40.2150 -77.0147 91° East 435 501 18,700 -1,440 Descending New York Center
05:33PM 40.2122 -76.8379 99° East 419 482 17,200 -1,380 Descending FlightAware ADS-B
05:33PM 40.2026 -76.7623 99° East 412 474 16,600 -1,200 Descending FlightAware ADS-B
05:34PM 40.1976 -76.7227 97° East 407 468 16,300 -960 Descending FlightAware ADS-B
05:34PM 40.1902 -76.6403 97° East 399 459 15,800 -1,080 Descending FlightAware ADS-B
05:35PM 40.1837 -76.5678 97° East 392 451 15,200 -1,200 Descending FlightAware ADS-B
05:35PM 40.1767 -76.4952 97° East 385 443 14,600 -1,200 Descending FlightAware ADS-B
05:36PM 40.1698 -76.4261 97° East 379 436 14,000 -1,200 Descending FlightAware ADS-B
05:36PM 40.1626 -76.3541 98° East 374 430 13,400 -1,200 Descending FlightAware ADS-B
05:37PM 40.1557 -76.2858 97° East 371 427 12,800 -1,200 Descending FlightAware ADS-B
05:37PM 40.1488 -76.2160 97° East 367 422 12,200 -1,200 Descending FlightAware ADS-B
05:38PM 40.1428 -76.1504 97° East 353 406 11,600 -1,140 Descending FlightAware ADS-B
05:38PM 40.1365 -76.0864 97° East 339 390 11,100 -1,020 Descending FlightAware ADS-B
05:39PM 40.1305 -76.0259 98° East 326 375 10,600 -1,080 Descending FlightAware ADS-B
05:39PM 40.1264 -75.9880 106° East 318 366 10,200 -1,440 Descending FlightAware ADS-B
05:39PM 40.1238 -75.9761 114° Southeast 313 360 10,000 -1,800 Descending FlightAware ADS-B
05:39PM 40.1214 -75.9689 121° Southeast 309 356 9,900 -1,800 Descending FlightAware ADS-B
05:39PM 40.1169 -75.9593 130° Southeast 303 349 9,700 -1,500 Descending FlightAware ADS-B
05:39PM 40.1121 -75.9518 132° Southeast 297 342 9,600 -1,200 Descending FlightAware ADS-B
05:39PM 40.1077 -75.9454 135° Southeast 294 338 9,500 -1,800 Descending FlightAware ADS-B
05:40PM 40.0927 -75.9258 135° Southeast 289 333 9,000 -1,980 Descending FlightAware ADS-B
05:40PM 40.0783 -75.9072 135° Southeast 289 333 8,500 -2,220 Descending FlightAware ADS-B
05:40PM 40.0642 -75.8886 134° Southeast 289 333 7,900 -2,100 Descending FlightAware ADS-B
05:41PM 40.0484 -75.8675 133° Southeast 290 334 7,400 -1,440 Descending FlightAware ADS-B
05:41PM 40.0333 -75.8467 133° Southeast 289 333 7,100 -1,140 Descending FlightAware ADS-B
05:41PM 40.0187 -75.8260 132° Southeast 285 328 6,800 -1,200 Descending FlightAware ADS-B
05:41PM 40.0055 -75.8067 131° Southeast 282 325 6,500 -1,200 Descending FlightAware ADS-B
05:42PM 39.9974 -75.7944 123° Southeast 282 325 6,300 -1,200 Descending FlightAware ADS-B
05:42PM 39.9935 -75.7866 121° Southeast 285 328 6,200 -600 Descending FlightAware ADS-B
05:42PM 39.9902 -75.7794 116° Southeast 285 328 6,200 -420 Level FlightAware ADS-B
05:42PM 39.9846 -75.7642 111° Southeast 285 328 6,100 -360 Descending FlightAware ADS-B
05:42PM 39.9805 -75.7502 109° East 287 330 6,100 -480 Level FlightAware ADS-B
05:42PM 39.9734 -75.7226 108° East 285 328 5,900 -900 Descending FlightAware ADS-B
05:42PM 39.9688 -75.7044 112° Southeast 282 325 5,700 -1,380 Descending FlightAware ADS-B
05:43PM 39.9658 -75.6948 117° Southeast 278 320 5,500 -1,320 Descending FlightAware ADS-B
05:43PM 39.9612 -75.6828 118° Southeast 276 318 5,400 -1,260 Descending FlightAware ADS-B
05:43PM 39.9514 -75.6592 118° Southeast 275 316 5,000 -1,320 Descending FlightAware ADS-B
05:43PM 39.9413 -75.6349 120° Southeast 274 315 4,700 -1,200 Descending FlightAware ADS-B
05:43PM 39.9394 -75.6306 121° Southeast 273 314 4,600 -1,200 Descending FlightAware ADS-B
05:43PM 39.9349 -75.6208 126° Southeast 269 310 4,500 -1,020 Descending FlightAware ADS-B
05:44PM 39.9313 -75.6143 126° Southeast 267 307 4,400 -1,200 Descending FlightAware ADS-B
05:44PM 39.9281 -75.6086 127° Southeast 264 304 4,300 -900 Descending FlightAware ADS-B
05:44PM 39.9169 -75.5892 128° Southeast 261 300 4,100 -420 Descending FlightAware ADS-B
05:44PM 39.9046 -75.5686 128° Southeast 258 297 4,100  Level FlightAware ADS-B
05:44PM 39.8927 -75.5489 127° Southeast 247 284 4,100 -240 Level FlightAware ADS-B
05:45PM 39.8819 -75.5303 127° Southeast 236 272 4,000 -600 Descending FlightAware ADS-B
05:45PM 39.8711 -75.5117 126° Southeast 226 260 3,800 -720 Descending FlightAware ADS-B
05:45PM 39.8652 -75.5013 121° Southeast 221 254 3,700 -780 Descending FlightAware ADS-B
05:45PM 39.8618 -75.4940 109° East 221 254 3,600 -600 Descending FlightAware ADS-B
05:45PM 39.8605 -75.4892 106° East 222 255 3,600  Level FlightAware ADS-B
05:45PM 39.8594 -75.4841 101° East 221 254 3,600 -360 Level FlightAware ADS-B
05:46PM 39.8565 -75.4653 101° East 212 244 3,500 -780 Descending FlightAware ADS-B
05:46PM 39.8536 -75.4450 100° East 196 226 3,200 -1,200 Descending FlightAware ADS-B
05:46PM 39.8515 -75.4294 98° East 192 221 2,900 -1,440 Descending FlightAware ADS-B
05:46PM 39.8507 -75.4215 90° East 190 219 2,700 -1,200 Descending FlightAware ADS-B
05:46PM 39.8507 -75.4179 90° East 190 219 2,700 -1,740 Level FlightAware ADS-B
05:46PM 39.8507 -75.4133 85° East 190 219 2,500 -1,500 Descending FlightAware ADS-B
05:46PM 39.8510 -75.4091 78° East 191 220 2,500 -1,500 Level FlightAware ADS-B
05:46PM 39.8519 -75.4038 77° East 190 219 2,300 -1,800 Descending FlightAware ADS-B
05:47PM 39.8531 -75.3972 73° East 188 216 2,200 -1,140 Descending FlightAware ADS-B
05:47PM 39.8570 -75.3803 72° East 181 208 1,900 -1,080 Descending FlightAware ADS-B
05:47PM 39.8603 -75.3667 78° East 177 204 1,700 -960 Descending FlightAware ADS-B
05:47PM 39.8622 -75.3554 77° East 169 194 1,500 -900 Descending FlightAware ADS-B
05:47PM 39.8649 -75.3405 77° East 164 189 1,300 -780 Descending FlightAware ADS-B
05:48PM 39.8678 -75.3242 76° East 164 189 1,100 -540 Descending FlightAware ADS-B
05:48PM 39.8692 -75.3170 75° East 162 186 1,100 -780 Level FlightAware ADS-B
05:48PM 39.8723 -75.3015 75° East 153 176 800 -1,080 Descending FlightAware ADS-B